createdAt,value
2022-10-13T00:00:01.369Z,6.34
2022-10-13T00:05:03.058Z,6.34
2022-10-13T00:10:05.072Z,6.28
2022-10-13T00:15:08.909Z,6.22
2022-10-13T00:20:11.845Z,6.16
2022-10-13T00:25:13.616Z,6.18
2022-10-13T00:30:16.074Z,6.08
2022-10-13T00:35:17.724Z,6.12
2022-10-13T00:40:19.526Z,6.04
2022-10-13T00:45:25.364Z,6.08
2022-10-13T00:50:32.237Z,6.11
2022-10-13T00:55:37.033Z,6.23
2022-10-13T01:00:38.779Z,6.39
2022-10-13T01:05:42.384Z,6.48
2022-10-13T01:11:28.351Z,6.68
2022-10-13T01:16:45.245Z,6.82
2022-10-13T01:22:19.788Z,6.61
2022-10-13T01:27:59.157Z,6.80
2022-10-13T01:33:24.041Z,6.79
2022-10-13T01:38:55.197Z,6.98
2022-10-13T01:44:10.004Z,6.91
2022-10-13T01:49:14.705Z,6.90
2022-10-13T01:54:16.477Z,6.94
2022-10-13T01:59:18.202Z,6.98
2022-10-13T02:04:33.026Z,6.90
2022-10-13T02:09:58.360Z,7.11
2022-10-13T02:15:38.918Z,6.99
2022-10-13T02:20:46.069Z,6.86
2022-10-13T02:25:50.008Z,6.92
2022-10-13T02:30:51.941Z,6.89
2022-10-13T02:35:53.652Z,6.86
2022-10-13T02:40:55.283Z,6.84
2022-10-13T02:45:57.098Z,6.93
2022-10-13T02:50:58.775Z,7.14
2022-10-13T02:56:00.416Z,7.01
2022-10-13T03:01:15.025Z,7.06
2022-10-13T03:06:16.723Z,6.92
2022-10-13T03:11:18.370Z,6.97
2022-10-13T03:16:20.343Z,6.87
2022-10-13T03:21:22.050Z,6.84
2022-10-13T03:26:23.765Z,6.91
2022-10-13T03:31:25.506Z,6.83
2022-10-13T03:36:35.127Z,6.65
2022-10-13T03:41:36.885Z,6.57
2022-10-13T03:46:38.557Z,6.50
2022-10-13T03:51:40.374Z,6.61
2022-10-13T03:56:42.963Z,6.71
2022-10-13T04:01:44.676Z,6.77
2022-10-13T04:06:46.363Z,6.89
2022-10-13T04:11:52.847Z,6.91
2022-10-13T04:16:54.546Z,6.97
2022-10-13T04:21:56.246Z,6.95
2022-10-13T04:26:58.017Z,6.98
2022-10-13T04:32:00.231Z,7.05
2022-10-13T04:37:01.898Z,7.12
2022-10-13T04:42:03.687Z,7.19
2022-10-13T04:47:05.348Z,7.08
2022-10-13T04:52:07.087Z,7.02
2022-10-13T04:57:08.755Z,7.31
2022-10-13T05:02:10.625Z,7.25
2022-10-13T05:07:17.895Z,7.25
2022-10-13T05:12:20.681Z,7.35
2022-10-13T05:17:23.385Z,7.26
2022-10-13T05:22:25.989Z,7.27
2022-10-13T05:27:27.650Z,7.33
2022-10-13T05:32:29.322Z,7.55
2022-10-13T05:37:30.987Z,7.44
2022-10-13T05:42:33.288Z,7.49
2022-10-13T05:47:35.119Z,7.43
2022-10-13T05:52:37.938Z,7.53
2022-10-13T05:57:43.809Z,7.62
2022-10-13T06:02:54.972Z,7.64
2022-10-13T06:07:56.777Z,7.46
2022-10-13T06:12:58.431Z,7.30
2022-10-13T06:18:00.233Z,7.49
2022-10-13T06:23:02.199Z,7.56
2022-10-13T06:28:05.908Z,7.51
2022-10-13T06:33:08.081Z,7.73
2022-10-13T06:38:10.771Z,7.64
2022-10-13T06:43:13.053Z,7.85
2022-10-13T06:48:17.296Z,8.08
2022-10-13T06:53:19.493Z,8.43
2022-10-13T06:58:21.151Z,8.76
2022-10-13T07:03:23.930Z,9.28
2022-10-13T07:08:26.116Z,10.35
2022-10-13T07:13:27.851Z,13.17
2022-10-13T07:18:29.683Z,13.95
2022-10-13T07:23:31.351Z,12.95
2022-10-13T07:28:33.064Z,12.64
2022-10-13T07:33:34.743Z,12.58
2022-10-13T07:38:36.485Z,13.31
2022-10-13T07:43:38.546Z,13.71
2022-10-13T07:48:41.805Z,13.67
2022-10-13T07:53:46.610Z,13.53
2022-10-13T07:58:48.398Z,13.43
2022-10-13T08:03:50.664Z,14.23
2022-10-13T08:08:53.340Z,14.72
2022-10-13T08:14:00.742Z,16.35
2022-10-13T08:19:02.432Z,22.86
2022-10-13T08:24:06.128Z,25.14
2022-10-13T08:29:24.322Z,24.28
2022-10-13T08:34:26.368Z,24.41
2022-10-13T08:39:29.077Z,21.72
2022-10-13T08:50:11.542Z,21.46
2022-10-13T08:55:51.853Z,25.10
2022-10-13T09:01:08.761Z,29.29
2022-10-13T09:06:48.749Z,26.22
2022-10-13T09:11:51.228Z,24.78
2022-10-13T09:16:54.159Z,22.54
2022-10-13T09:22:15.577Z,19.43
2022-10-13T09:27:17.739Z,19.62
2022-10-13T09:32:23.921Z,20.83
2022-10-13T09:37:26.134Z,18.75
2022-10-13T09:42:30.173Z,18.46
2022-10-13T09:47:36.171Z,18.92
2022-10-13T09:52:37.917Z,19.27
2022-10-13T09:57:48.693Z,19.83
2022-10-13T10:03:05.663Z,20.95
2022-10-13T10:08:14.002Z,19.54
2022-10-13T10:13:15.714Z,19.62
2022-10-13T10:18:25.471Z,18.81
2022-10-13T10:24:06.829Z,19.02
2022-10-13T10:29:27.338Z,19.04
2022-10-13T10:34:43.531Z,19.37
2022-10-13T10:40:20.623Z,18.38
2022-10-13T10:45:26.460Z,18.80
2022-10-13T10:50:30.052Z,19.83
2022-10-13T10:55:57.602Z,20.61
2022-10-13T11:01:08.222Z,21.00
2022-10-13T11:06:17.650Z,21.99
2022-10-13T11:11:26.710Z,22.68
2022-10-13T11:16:29.778Z,18.66
2022-10-13T11:21:59.325Z,21.24
2022-10-13T11:27:16.036Z,20.23
2022-10-13T11:32:32.927Z,19.43
2022-10-13T11:37:48.254Z,20.05
2022-10-13T11:43:09.749Z,23.27
2022-10-13T11:48:27.091Z,20.51
2022-10-13T11:54:00.822Z,21.85
2022-10-13T11:59:02.883Z,20.67
2022-10-13T12:04:14.675Z,19.04
2022-10-13T12:09:21.353Z,19.63
2022-10-13T12:14:31.790Z,20.54
2022-10-13T12:19:34.008Z,19.70
2022-10-13T12:24:35.740Z,19.71
2022-10-13T12:29:40.638Z,19.35
2022-10-13T12:34:42.338Z,19.08
2022-10-13T12:39:44.570Z,18.90
2022-10-13T12:44:46.431Z,18.80
2022-10-13T12:49:48.142Z,19.26
2022-10-13T12:54:55.927Z,19.36
2022-10-13T12:59:57.633Z,18.89
2022-10-13T13:04:59.640Z,18.97
2022-10-13T13:10:16.175Z,18.56
2022-10-13T13:15:38.051Z,18.86
2022-10-13T13:20:39.758Z,18.91
2022-10-13T13:25:41.452Z,18.77
2022-10-13T13:30:43.902Z,18.94
2022-10-13T13:35:45.598Z,18.73
2022-10-13T13:40:47.381Z,18.86
2022-10-13T13:45:49.188Z,18.94
2022-10-13T13:50:50.906Z,19.11
2022-10-13T13:55:52.584Z,19.16
2022-10-13T14:00:54.983Z,18.64
2022-10-13T14:05:56.661Z,19.06
2022-10-13T14:10:58.794Z,19.20
2022-10-13T14:16:02.183Z,18.63
2022-10-13T14:21:07.299Z,18.32
2022-10-13T14:26:09.679Z,18.09
2022-10-13T14:31:11.885Z,18.18
2022-10-13T14:36:15.658Z,17.78
2022-10-13T14:41:18.136Z,17.58
2022-10-13T14:46:20.788Z,17.51
2022-10-13T14:51:22.553Z,17.32
2022-10-13T14:56:30.142Z,17.34
2022-10-13T15:01:33.604Z,17.34
2022-10-13T15:06:35.866Z,17.23
2022-10-13T15:11:37.556Z,17.16
2022-10-13T15:16:39.227Z,17.03
2022-10-13T15:21:41.020Z,16.77
2022-10-13T15:26:42.677Z,16.71
2022-10-13T15:31:44.325Z,16.63
2022-10-13T15:36:45.988Z,16.42
2022-10-13T15:41:47.806Z,16.11
2022-10-13T15:47:07.155Z,15.85
2022-10-13T15:52:09.941Z,15.80
2022-10-13T15:57:11.644Z,15.52
2022-10-13T16:02:13.366Z,15.63
2022-10-13T16:07:15.017Z,15.83
2022-10-13T16:12:18.327Z,15.28
2022-10-13T16:17:21.643Z,15.23
2022-10-13T16:22:23.606Z,15.45
2022-10-13T16:27:25.461Z,15.31
2022-10-13T16:32:27.278Z,15.47
2022-10-13T16:37:30.411Z,15.53
2022-10-13T16:42:32.118Z,15.38
2022-10-13T16:47:33.800Z,15.28
2022-10-13T16:52:37.129Z,15.17
2022-10-13T16:57:39.268Z,14.94
2022-10-13T17:02:40.960Z,14.89
2022-10-13T17:07:42.708Z,14.76
2022-10-13T17:12:44.593Z,14.71
2022-10-13T17:17:46.321Z,14.35
2022-10-13T17:22:47.977Z,14.25
2022-10-13T17:27:49.655Z,14.07
2022-10-13T17:32:52.228Z,13.74
2022-10-13T17:37:54.781Z,13.51
2022-10-13T17:42:56.640Z,13.29
2022-10-13T17:47:58.865Z,13.16
2022-10-13T17:53:03.501Z,13.04
2022-10-13T17:58:05.208Z,12.93
2022-10-13T18:03:06.875Z,12.68
2022-10-13T18:08:08.559Z,12.50
2022-10-13T18:13:13.205Z,12.40
2022-10-13T18:18:15.040Z,12.29
2022-10-13T18:23:16.787Z,12.22
2022-10-13T18:28:18.513Z,12.16
2022-10-13T18:33:20.210Z,12.12
2022-10-13T18:38:23.882Z,12.04
2022-10-13T18:43:25.527Z,12.18
2022-10-13T18:48:27.660Z,12.35
2022-10-13T18:53:29.343Z,12.30
2022-10-13T18:58:31.656Z,11.99
2022-10-13T19:03:35.192Z,12.07
2022-10-13T19:08:37.087Z,11.90
2022-10-13T19:13:39.787Z,11.87
2022-10-13T19:18:42.415Z,11.79
2022-10-13T19:23:44.395Z,11.58
2022-10-13T19:29:05.647Z,11.45
2022-10-13T19:34:08.312Z,11.39
2022-10-13T19:39:19.428Z,11.46
2022-10-13T19:44:22.483Z,11.30
2022-10-13T19:49:26.408Z,11.04
2022-10-13T19:54:33.628Z,11.19
2022-10-13T19:59:36.522Z,10.98
2022-10-13T20:04:38.213Z,10.93
2022-10-13T20:09:40.601Z,10.83
2022-10-13T20:14:42.351Z,10.65
2022-10-13T20:19:44.208Z,10.61
2022-10-13T20:24:45.886Z,10.51
2022-10-13T20:29:47.542Z,10.37
2022-10-13T20:34:49.394Z,10.31
2022-10-13T20:39:51.046Z,10.32
2022-10-13T20:44:52.816Z,10.51
2022-10-13T20:49:54.449Z,10.59
2022-10-13T20:54:56.086Z,10.44
2022-10-13T21:00:00.100Z,10.45
2022-10-13T21:05:01.770Z,10.45
2022-10-13T21:10:03.684Z,10.39
2022-10-13T21:15:06.561Z,10.10
2022-10-13T21:20:09.255Z,10.11
2022-10-13T21:25:10.893Z,10.20
2022-10-13T21:30:12.918Z,9.97
2022-10-13T21:35:15.112Z,9.80
2022-10-13T21:40:16.975Z,10.01
2022-10-13T21:45:18.679Z,9.99
2022-10-13T21:50:20.391Z,10.10
2022-10-13T21:55:23.199Z,10.14
2022-10-13T22:00:25.366Z,9.99
2022-10-13T22:05:27.039Z,10.22
2022-10-13T22:10:31.951Z,10.28
2022-10-13T22:15:34.861Z,10.27
2022-10-13T22:20:36.789Z,10.47
2022-10-13T22:25:44.864Z,10.27
2022-10-13T22:30:46.530Z,10.40
2022-10-13T22:35:48.682Z,10.42
2022-10-13T22:40:51.042Z,10.40
2022-10-13T22:45:52.735Z,10.52
2022-10-13T22:50:54.428Z,10.35
2022-10-13T22:55:56.114Z,10.62
2022-10-13T23:01:04.711Z,10.27
2022-10-13T23:06:08.285Z,10.19
2022-10-13T23:11:10.862Z,10.24
2022-10-13T23:16:16.036Z,9.91
2022-10-13T23:21:20.248Z,9.88
2022-10-13T23:26:21.951Z,9.73
2022-10-13T23:31:24.919Z,9.55
2022-10-13T23:36:29.505Z,9.61
2022-10-13T23:41:31.229Z,9.70
2022-10-13T23:46:32.919Z,9.72
2022-10-13T23:51:34.597Z,9.68
2022-10-13T23:56:36.258Z,9.67
